Nearby METAR Reports

 

KSQL - San Carlos Airpo, California, USA
Distance from station: N 0mi, 1km
Updated: Wed, 19-Dec-2018 1:55am PST
Few Clouds
Few Clouds
 Wind from calm
Wind: Calm
Temperature: 50°F , 10°C
Dew Point: 50°F , 10°C
Humidity: 100%
Barometer: 30.33 inHg , 1027.1 hPa
Clouds: Few Clouds
Visibility: 10 miles , 16 km
Cloud details: Few Clouds 2400 ft
2018/12/19 09:55 KSQL 190955Z AUTO 00000KT 10SM FEW024 10/10 A3033 RMK AO2
KPAO - Palo Alto, California, USA
Distance from station: ESE 8mi, 13km
Updated: Tue, 18-Dec-2018 8:47pm PST
NOT Current
Clear
Clear
 Wind from calm
Wind: Calm
Temperature: 52°F , 11°C
Dew Point: 50°F , 10°C
Humidity: 94%
Barometer: 30.33 inHg , 1027.1 hPa
Clouds: Clear
Visibility: 10 miles , 16 km
2018/12/19 04:47 KPAO 190447Z 00000KT 10SM SKC 11/10 A3033 RMK LAST
 
KSFO - San Francisco, California, USA
Distance from station: NW 10mi, 16km
Updated: Wed, 19-Dec-2018 1:56am PST
Overcast
Overcast
 Wind from calm
Wind: Calm
Temperature: 54°F , 12°C
Dew Point: 50°F , 10°C
Humidity: 88%
Barometer: 30.32 inHg , 1026.8 hPa
Clouds: Overcast
Visibility: 10 miles , 16 km
Cloud details: Few Clouds 600 ft
Mostly cloudy 1300 ft
Overcast 2100 ft
2018/12/19 09:56 KSFO 190956Z 00000KT 10SM FEW006 BKN013 OVC021 12/10 A3032 RMK AO2 SLP266 T01220100
KHWD - Hayward, California, USA
Distance from station: NE 13mi, 21km
Updated: Wed, 19-Dec-2018 1:54am PST
Mostly cloudy
Mostly cloudy
 Wind from calm
Wind: Calm
Temperature: 54°F , 12°C
Dew Point: 48°F , 9°C
Humidity: 82%
Barometer: 30.33 inHg , 1027.1 hPa
Clouds: Mostly cloudy
Visibility: 10 miles , 16 km
Cloud details: Mostly cloudy 2000 ft
2018/12/19 09:54 KHWD 190954Z AUTO 00000KT 10SM BKN020 12/09 A3033 RMK AO2 SLP279 T01220094
 
KNUQ - Moffett Nas/Mtn, California, USA
Distance from station: SE 13mi, 22km
Updated: Wed, 19-Dec-2018 1:56am PST
Clear
Clear
 Wind from SE
Wind: SE 3 mph , 6 km/h
Temperature: 46°F , 8°C
Dew Point: 45°F , 7°C
Humidity: 93%
Barometer: 30.34 inHg , 1027.4 hPa
Clouds: Clear
Visibility: 10 miles , 16 km
2018/12/19 09:56 KNUQ 190956Z 13003KT 10SM CLR 08/07 A3034 RMK AO2 SLP275 T00780067 $
KHAF - Half Moon Bay, California, USA
Distance from station: W 14mi, 22km
Updated: Wed, 19-Dec-2018 1:55am PST
Overcast
Overcast
 Wind from NNE
Wind: NNE 5 mph , 7 km/h
Temperature: 55°F , 13°C
Dew Point: 54°F , 12°C
Humidity: 94%
Barometer: 30.33 inHg , 1027.1 hPa
Clouds: Overcast
Visibility: 10 miles , 16 km
Cloud details: Overcast 1200 ft
2018/12/19 09:55 KHAF 190955Z AUTO 03004KT 10SM OVC012 13/12 A3033 RMK AO2
 
KOAK - Oakland, California, USA
Distance from station: N 14mi, 23km
Updated: Wed, 19-Dec-2018 1:53am PST
Overcast
Overcast
 Wind from SSE
Wind: SSE 5 mph , 7 km/h
Temperature: 54°F , 12°C
Dew Point: 52°F , 11°C
Humidity: 94%
Barometer: 30.34 inHg , 1027.4 hPa
Clouds: Overcast
Visibility: 10 miles , 16 km
Cloud details: Overcast 2000 ft
2018/12/19 09:53 KOAK 190953Z 16004KT 10SM OVC020 12/11 A3034 RMK AO2 SLP273 T01220106
KSJC - San Jose, California, USA
Distance from station: ESE 21mi, 34km
Updated: Wed, 19-Dec-2018 1:53am PST
Partly cloudy
Partly cloudy
 Wind from calm
Wind: Calm
Temperature: 48°F , 9°C
Dew Point: 46°F , 8°C
Humidity: 94%
Barometer: 30.33 inHg , 1027.1 hPa
Clouds: Partly cloudy
Visibility: 10 miles , 16 km
Cloud details: Partly cloudy 1800 ft
2018/12/19 09:53 KSJC 190953Z AUTO 00000KT 10SM SCT018 09/08 A3033 RMK AO2 SLP271 T00940078
 
KLVK - Livermore, California, USA
Distance from station: ENE 27mi, 43km
Updated: Wed, 19-Dec-2018 1:53am PST
Clear
Clear
 Wind from E
Wind: E 3 mph , 6 km/h
Temperature: 45°F , 7°C
Dew Point: 43°F , 6°C
Humidity: 93%
Barometer: 30.33 inHg , 1027.1 hPa
Clouds: Clear
Visibility: 9 miles , 14 km
2018/12/19 09:53 KLVK 190953Z AUTO 08003KT 9SM CLR 07/06 A3033 RMK AO2 SLP270 T00720056
KRHV - San Jose/Reid, California, USA
Distance from station: ESE 27mi, 44km
Updated: Tue, 18-Dec-2018 9:57pm PST
NOT Current
Clear
Clear
 Wind from calm
Wind: Calm
Temperature: 50°F , 10°C
Dew Point: 48°F , 9°C
Humidity: 94%
Barometer: 30.32 inHg , 1026.8 hPa
Clouds: Clear
Visibility: 10 miles , 16 km
2018/12/19 05:57 KRHV 190557Z 00000KT 10SM SKC 10/09 A3032
 
KCCR - Concord, California, USA
Distance from station: NNE 35mi, 57km
Updated: Wed, 19-Dec-2018 1:53am PST
Overcast
Overcast
 Wind from S
Wind: S 5 mph , 7 km/h
Temperature: 55°F , 13°C
Dew Point: 48°F , 9°C
Humidity: 77%
Barometer: 30.33 inHg , 1027.1 hPa
Clouds: Overcast
Visibility: 10 miles , 16 km
Cloud details: Overcast 1500 ft
2018/12/19 09:53 KCCR 190953Z AUTO 18004KT 10SM OVC015 13/09 A3033 RMK AO2 SLP255 T01330094
KE16 - San Martin, California, USA
Distance from station: SE 46mi, 75km
Updated: Wed, 19-Dec-2018 1:30am PST
Few Clouds
Few Clouds
 Wind from calm
Wind: Calm
Temperature: 43°F , 6°C
Dew Point: 43°F , 6°C
Humidity: 100%
Barometer: 30.35 inHg , 1027.8 hPa
Clouds: Few Clouds
Visibility: 9 miles , 14 km
Cloud details: Few Clouds 1500 ft
2018/12/19 09:30 KE16 190930Z AUTO 00000KT 9SM FEW015 06/06 A3035 RMK AO2 PWINO PNO
 
KDVO - Novato/Gnoss Fld, California, USA
Distance from station: NNW 47mi, 76km
Updated: Wed, 19-Dec-2018 1:55am PST
Mist, Overcast
Mist, Overcast
 Wind from SSW
Wind: SSW 5 mph , 7 km/h
Temperature: 55°F , 13°C
Dew Point: 55°F , 13°C
Humidity: 100%
Barometer: 30.32 inHg , 1026.8 hPa
Summary: Mist
Clouds: Overcast
Visibility: 2 miles , 3 km
Cloud details: Overcast 400 ft
2018/12/19 09:55 KDVO 190955Z AUTO 21004KT 2SM BR OVC004 13/13 A3032 RMK AO2
KWVI - Watsonville, California, USA
Distance from station: SSE 47mi, 76km
Updated: Wed, 19-Dec-2018 1:53am PST
Clear
Clear
 Wind from calm
Wind: Calm
Temperature: 46°F , 8°C
Dew Point: 46°F , 8°C
Humidity: 100%
Barometer: 30.32 inHg , 1026.8 hPa
Clouds: Clear
Visibility: 10 miles , 16 km
2018/12/19 09:53 KWVI 190953Z AUTO 00000KT 10SM CLR 08/08 A3032 RMK AO2 SLP267 T00830083
 
KAPC - Napa, California, USA
Distance from station: N 48mi, 77km
Updated: Wed, 19-Dec-2018 1:54am PST
Mist, Overcast
Mist, Overcast
 Wind from calm
Wind: Calm
Temperature: 55°F , 13°C
Dew Point: 55°F , 13°C
Humidity: 100%
Barometer: 30.32 inHg , 1026.8 hPa
Summary: Mist
Clouds: Overcast
Visibility: 1 3/4 miles , 5 km
Cloud details: Overcast 500 ft
2018/12/19 09:54 KAPC 190954Z AUTO 00000KT 1 3/4SM BR OVC005 13/13 A3032 RMK AO2 CIG 002V006 SLP260 T01330128
KO69 - Petaluma, California, USA
Distance from station: NNW 54mi, 88km
Updated: Wed, 19-Dec-2018 1:35am PST
Fog, Overcast
Fog, Overcast
 Wind from calm
Wind: Calm
Temperature: 54°F , 12°C
Dew Point: 54°F , 12°C
Humidity: 100%
Barometer: 30.33 inHg , 1027.1 hPa
Summary: Fog
Clouds: Overcast
Visibility: 1/4 mile , 2 km
Cloud details: Mostly cloudy 200 ft
Overcast 700 ft
2018/12/19 09:35 KO69 190935Z AUTO 00000KT 1/4SM FG BKN002 OVC007 12/12 A3033 RMK A01
 
KSUU - Travis Afb/Fairf, California, USA
Distance from station: NNE 55mi, 89km
Updated: Wed, 19-Dec-2018 12:58am PST
Clear
Clear
 Wind from WSW
Wind: WSW 8 mph , 13 km/h
Temperature: 54°F , 12°C
Dew Point: 52°F , 11°C
Humidity: 94%
Barometer: 30.33 inHg , 1027.1 hPa
Clouds: Clear
Visibility: 9 miles , 14 km
2018/12/19 08:58 KSUU 190858Z AUTO 24007KT 9SM CLR 12/11 A3033 RMK AO2 SLP278 T01240113 50003 $
KCVH - Hollister Muni, California, USA
Distance from station: SE 62mi, 100km
Updated: Wed, 19-Dec-2018 1:55am PST
Clear
Clear
 Wind from ENE
Wind: ENE 3 mph , 6 km/h
Temperature: 43°F , 6°C
Dew Point: 43°F , 6°C
Humidity: 100%
Barometer: 30.34 inHg , 1027.4 hPa
Clouds: Clear
Visibility: 10 miles , 16 km
2018/12/19 09:55 KCVH 190955Z AUTO 06003KT 10SM CLR 06/06 A3034 RMK A01
 
KSCK - Stockton, California, USA
Distance from station: ENE 62mi, 100km
Updated: Wed, 19-Dec-2018 1:55am PST
Clear
Clear
 Wind from calm
Wind: Calm
Temperature: 46°F , 8°C
Dew Point: 45°F , 7°C
Humidity: 93%
Barometer: 30.32 inHg , 1026.8 hPa
Clouds: Clear
Visibility: 10 miles , 16 km
2018/12/19 09:55 KSCK 190955Z AUTO 00000KT 10SM CLR 08/07 A3032 RMK AO2 SLP268 T00830067
KVCB - Vacaville, California, USA
Distance from station: NNE 62mi, 100km
Updated: Wed, 19-Dec-2018 1:53am PST
Clear
Clear
 Wind from SSW
Wind: SSW 7 mph , 11 km/h
Temperature: 54°F , 12°C
Dew Point: 54°F , 12°C
Humidity: 100%
Barometer: 30.33 inHg , 1027.1 hPa
Clouds: Clear
Visibility: 7 miles , 11 km
2018/12/19 09:53 KVCB 190953Z AUTO 21006KT 7SM CLR 12/12 A3033 RMK AO2 SLP269 T01220117